This is the latest recevied weather packets stored in our database for station/object EA7HQL-10. If no packets are shown the sender has not sent any weather packets the latest 10 day(s).
| Time | Temp. | Humidity | Pressure | Rain* | Wind** | Luminosity | Snow |
|---|---|---|---|---|---|---|---|
| 1777891760 | 22.78° C | 57% | 1012.4 hPa | 0 mm | - | - | - |
| 1777891464 | 22.78° C | 56% | 1012.4 hPa | 0 mm | - | - | - |
| 1777891185 | 21.67° C | 58% | 1012.5 hPa | 0 mm | - | - | - |
| 1777890940 | 22.22° C | 56% | 1012.6 hPa | 0 mm | - | - | - |
| 1777890690 | 21.11° C | 60% | 1012.8 hPa | 0 mm | - | - | - |
| 1777890400 | 21.11° C | 60% | 1012.4 hPa | 0 mm | - | - | - |
| 1777890105 | 22.78° C | 59% | 1012.6 hPa | 0 mm | - | - | - |
| 1777889808 | 21.67° C | 58% | 1012.8 hPa | 0 mm | - | - | - |
| 1777889550 | 22.22° C | 57% | 1012.5 hPa | 0 mm | - | - | - |
| 1777889300 | 22.22° C | 57% | 1012.4 hPa | 0 mm | - | - | - |
| 1777889025 | 22.22° C | 57% | 1012.3 hPa | 0 mm | - | - | - |
| 1777888780 | 22.78° C | 55% | 1012.5 hPa | 0 mm | - | - | - |
| 1777888494 | 21.67° C | 57% | 1012.6 hPa | 0 mm | - | - | - |
| 1777888210 | 20.56° C | 59% | 1012.6 hPa | 0 mm | - | - | - |
| 1777887965 | 21.67° C | 58% | 1012.6 hPa | 0 mm | - | - | - |
| 1777887695 | 22.78° C | 52% | 1012.6 hPa | 0 mm | - | - | - |
| 1777887390 | 22.78° C | 53% | 1012.8 hPa | 0 mm | - | - | - |
| 1777887095 | 22.22° C | 55% | 1012.9 hPa | 0 mm | - | - | - |
| 1777886805 | 21.67° C | 55% | 1012.9 hPa | 0 mm | - | - | - |
| 1777886555 | 21.67° C | 55% | 1012.8 hPa | 0 mm | - | - | - |
| 1777886280 | 21.11° C | 56% | 1012.9 hPa | 0 mm | - | - | - |
| 1777885985 | 21.67° C | 55% | 1012.6 hPa | 0 mm | - | - | - |
| 1777885740 | 21.67° C | 56% | 1012.6 hPa | 0 mm | - | - | - |
| 1777885484 | 21.11° C | 56% | 1012.8 hPa | 0 mm | - | - | - |
| 1777885226 | 21.11° C | 58% | 1012.6 hPa | 0 mm | - | - | - |
* Rain latest hour (hover to see other rain measurements)
** Current wind speed in m/s (hover to see current wind gust speed)